createdAt,value
2022-10-11T00:01:05.742Z,8.70
2022-10-11T00:03:48.587Z,8.65
2022-10-11T00:06:27.734Z,8.61
2022-10-11T00:09:07.886Z,8.60
2022-10-11T00:11:49.236Z,8.55
2022-10-11T00:14:31.321Z,8.57
2022-10-11T00:17:12.044Z,8.55
2022-10-11T00:19:51.842Z,8.55
2022-10-11T00:22:31.732Z,8.46
2022-10-11T00:25:12.675Z,8.50
2022-10-11T00:27:52.856Z,8.46
2022-10-11T00:30:34.868Z,8.46
2022-10-11T00:33:17.714Z,8.43
2022-10-11T00:35:59.711Z,8.43
2022-10-11T00:38:42.075Z,8.40
2022-10-11T00:41:25.119Z,8.38
2022-10-11T00:44:12.319Z,8.37
2022-10-11T00:46:55.831Z,8.37
2022-10-11T00:49:42.159Z,8.32
2022-10-11T00:52:28.863Z,8.31
2022-10-11T00:55:10.529Z,8.31
2022-10-11T00:57:50.773Z,8.29
2022-10-11T01:00:32.595Z,8.27
2022-10-11T01:03:15.575Z,8.24
2022-10-11T02:46:18.803Z,7.53
2022-10-11T02:49:00.739Z,7.51
2022-10-11T02:51:39.705Z,7.50
2022-10-11T02:54:19.783Z,7.54
2022-10-11T02:56:59.645Z,7.51
2022-10-11T02:59:40.565Z,7.50
2022-10-11T03:02:20.898Z,7.40
2022-10-11T03:05:02.250Z,7.41
2022-10-11T03:07:42.018Z,7.40
2022-10-11T03:10:21.847Z,7.43
2022-10-11T03:13:01.761Z,7.39
2022-10-11T03:15:43.044Z,7.38
2022-10-11T03:18:22.864Z,7.36
2022-10-11T03:21:02.696Z,7.34
2022-10-11T03:23:44.587Z,7.32
2022-10-11T03:26:27.516Z,7.30
2022-10-11T03:29:21.949Z,7.26
2022-10-11T03:32:03.277Z,7.27
2022-10-11T03:34:43.107Z,7.24
2022-10-11T03:37:22.925Z,7.26
2022-10-11T03:40:03.244Z,7.25
2022-10-11T03:42:45.080Z,7.21
2022-10-11T03:45:25.543Z,7.19
2022-10-11T03:48:03.584Z,7.19
2022-10-11T03:50:46.574Z,7.17
2022-10-11T03:53:26.709Z,7.14
2022-10-11T03:56:08.786Z,7.16
2022-10-11T03:58:49.397Z,7.15
2022-10-11T04:01:29.177Z,7.14
2022-10-11T04:04:08.667Z,7.13
2022-10-11T04:06:48.803Z,7.12
2022-10-11T04:09:26.741Z,7.11
2022-10-11T04:12:06.956Z,7.07
2022-10-11T04:14:46.265Z,7.03
2022-10-11T04:17:26.561Z,7.03
2022-10-11T04:20:10.632Z,7.03
2022-10-11T04:22:51.253Z,7.07
2022-10-11T04:25:30.347Z,7.06
2022-10-11T04:28:10.696Z,7.05
2022-10-11T04:30:51.863Z,7.03
2022-10-11T04:33:31.737Z,7.04
2022-10-11T04:36:11.350Z,7.04
2022-10-11T04:38:56.047Z,7.05
2022-10-11T04:41:37.904Z,7.06
2022-10-11T04:44:20.870Z,7.06
2022-10-11T04:47:01.964Z,7.06
2022-10-11T04:49:43.292Z,7.06
2022-10-11T04:52:25.738Z,7.03
2022-10-11T04:55:06.827Z,7.03
2022-10-11T04:57:47.681Z,7.05
2022-10-11T05:00:28.951Z,7.03
2022-10-11T05:03:06.814Z,7.01
2022-10-11T05:05:49.109Z,7.02
2022-10-11T05:08:31.491Z,7.00
2022-10-11T05:11:15.602Z,7.00
2022-10-11T05:13:56.692Z,6.98
2022-10-11T05:16:37.389Z,6.96
2022-10-11T05:19:19.237Z,6.95
2022-10-11T05:22:00.267Z,6.92
2022-10-11T05:24:41.696Z,6.93
2022-10-11T05:27:23.003Z,6.88
2022-10-11T05:30:02.993Z,6.89
2022-10-11T05:32:45.278Z,6.86
2022-10-11T05:35:23.716Z,6.85
2022-10-11T05:38:06.038Z,6.84
2022-10-11T05:40:46.907Z,6.85
2022-10-11T05:44:09.826Z,6.83
2022-10-11T05:57:24.749Z,6.81
2022-10-11T06:00:03.113Z,6.81
2022-10-11T06:02:52.662Z,6.83
2022-10-11T06:05:32.486Z,6.84
2022-10-11T06:08:12.043Z,6.83
2022-10-11T06:10:53.362Z,6.86
2022-10-11T06:13:53.315Z,6.90
2022-10-11T06:16:52.066Z,6.92
2022-10-11T06:19:45.917Z,6.91
2022-10-11T06:22:24.428Z,6.95
2022-10-11T06:25:17.684Z,6.98
2022-10-11T06:28:14.480Z,7.02
2022-10-11T06:30:53.466Z,7.06
2022-10-11T06:33:50.820Z,7.07
2022-10-11T06:36:59.706Z,7.11
2022-10-11T06:40:00.751Z,7.17
2022-10-11T06:42:58.898Z,7.17
2022-10-11T06:45:53.736Z,7.21
2022-10-11T06:49:01.446Z,7.29
2022-10-11T06:51:59.358Z,7.34
2022-10-11T06:54:41.230Z,7.41
2022-10-11T06:57:48.357Z,7.42
2022-10-11T07:00:27.290Z,7.45
2022-10-11T07:03:39.542Z,7.50
2022-10-11T07:06:30.885Z,7.57
2022-10-11T07:09:24.843Z,7.60
2022-10-11T07:12:37.034Z,7.69
2022-10-11T07:15:32.215Z,7.73
2022-10-11T07:18:28.490Z,7.80
2022-10-11T07:21:45.820Z,7.87
2022-10-11T07:24:24.722Z,7.94
2022-10-11T07:27:20.673Z,8.00
2022-10-11T07:29:58.709Z,8.05
2022-10-11T07:32:58.562Z,8.14
2022-10-11T07:35:37.677Z,8.22
2022-10-11T07:38:35.220Z,8.33
2022-10-11T07:41:28.250Z,8.37
2022-10-11T07:44:46.597Z,8.50
2022-10-11T07:47:24.677Z,8.57
2022-10-11T07:50:03.124Z,8.64
2022-10-11T07:53:02.804Z,8.73
2022-10-11T07:56:07.187Z,8.85
2022-10-11T07:59:08.874Z,8.94
2022-10-11T08:01:47.744Z,9.01
2022-10-11T08:04:57.637Z,9.16
2022-10-11T08:07:38.995Z,9.22
2022-10-11T08:10:17.797Z,9.30
2022-10-11T08:13:18.704Z,9.42
2022-10-11T08:16:22.499Z,9.53
2022-10-11T08:19:21.237Z,9.65
2022-10-11T08:22:00.728Z,9.77
2022-10-11T08:25:01.213Z,9.84
2022-10-11T08:27:39.522Z,9.90
2022-10-11T08:30:41.413Z,9.98
2022-10-11T08:33:22.500Z,10.07
2022-10-11T08:36:04.677Z,10.15
2022-10-11T08:39:23.110Z,10.25
2022-10-11T08:42:05.298Z,10.33
2022-10-11T08:45:10.116Z,10.42
2022-10-11T08:48:05.372Z,10.51
2022-10-11T08:50:59.221Z,10.62
2022-10-11T08:53:41.426Z,10.71
2022-10-11T08:56:37.720Z,10.81
2022-10-11T08:59:33.977Z,10.93
2022-10-11T09:02:39.130Z,11.01
2022-10-11T09:05:31.577Z,11.14
2022-10-11T09:08:34.789Z,11.27
2022-10-11T09:11:13.657Z,11.38
2022-10-11T09:13:56.510Z,11.48
2022-10-11T09:16:44.447Z,11.58
2022-10-11T09:19:42.050Z,11.74
2022-10-11T09:22:29.515Z,11.88
2022-10-11T09:25:16.607Z,12.01
2022-10-11T09:28:02.815Z,12.21
2022-10-11T09:30:49.133Z,12.41
2022-10-11T09:33:29.981Z,12.63
2022-10-11T09:36:13.407Z,12.85
2022-10-11T09:38:55.760Z,13.15
2022-10-11T09:41:36.205Z,13.29
2022-10-11T09:44:21.133Z,13.53
2022-10-11T09:47:02.990Z,13.87
2022-10-11T09:49:46.213Z,14.16
2022-10-11T09:52:27.523Z,14.41
2022-10-11T09:55:19.542Z,14.63
2022-10-11T09:58:01.111Z,14.79
2022-10-11T10:00:45.132Z,15.02
2022-10-11T10:03:44.532Z,15.09
2022-10-11T10:06:53.092Z,15.40
2022-10-11T10:09:33.068Z,15.65
2022-10-11T10:12:15.164Z,15.89
2022-10-11T10:14:57.400Z,16.13
2022-10-11T10:17:38.347Z,16.30
2022-10-11T10:20:21.526Z,16.42
2022-10-11T10:23:02.260Z,16.38
2022-10-11T10:25:43.650Z,16.74
2022-10-11T10:28:25.492Z,16.87
2022-10-11T10:31:05.860Z,16.88
2022-10-11T10:33:51.628Z,16.94
2022-10-11T10:36:30.522Z,17.19
2022-10-11T10:39:32.760Z,17.12
2022-10-11T10:42:15.454Z,17.28
2022-10-11T10:44:56.870Z,17.06
2022-10-11T10:47:42.333Z,17.26
2022-10-11T10:50:24.609Z,17.28
2022-10-11T10:53:10.405Z,17.24
2022-10-11T10:55:52.385Z,17.24
2022-10-11T10:58:37.643Z,17.45
2022-10-11T11:01:30.406Z,17.52
2022-10-11T11:04:14.220Z,17.51
2022-10-11T11:06:57.959Z,17.74
2022-10-11T11:09:44.658Z,17.76
2022-10-11T11:12:28.749Z,17.68
2022-10-11T11:15:33.072Z,18.07
2022-10-11T11:18:21.155Z,18.29
2022-10-11T11:21:09.151Z,18.35
2022-10-11T11:23:50.185Z,18.27
2022-10-11T11:26:34.864Z,18.25
2022-10-11T11:29:18.259Z,18.26
2022-10-11T11:32:15.069Z,18.25
2022-10-11T11:36:19.179Z,18.21
2022-10-11T11:39:00.844Z,18.33
2022-10-11T11:41:43.778Z,18.38
2022-10-11T11:44:37.328Z,18.45
2022-10-11T11:47:19.650Z,18.81
2022-10-11T11:50:05.090Z,18.73
2022-10-11T11:52:45.501Z,18.75
2022-10-11T11:55:33.306Z,18.76
2022-10-11T11:58:19.708Z,18.70
2022-10-11T12:01:05.020Z,18.93
2022-10-11T12:03:46.910Z,18.82
2022-10-11T12:06:29.219Z,18.82
2022-10-11T12:09:10.496Z,18.80
2022-10-11T12:11:52.165Z,18.89
2022-10-11T12:14:38.961Z,18.88
2022-10-11T12:17:20.957Z,19.05
2022-10-11T12:20:10.404Z,19.24
2022-10-11T12:22:54.031Z,19.40
2022-10-11T12:25:38.809Z,19.50
2022-10-11T12:28:37.641Z,19.61
2022-10-11T12:31:22.033Z,19.71
2022-10-11T12:34:18.569Z,19.65
2022-10-11T12:37:05.905Z,19.77
2022-10-11T12:39:51.119Z,19.85
2022-10-11T12:42:32.885Z,19.92
2022-10-11T12:45:32.537Z,20.01
2022-10-11T12:48:34.056Z,20.11
2022-10-11T12:51:26.597Z,20.13
2022-10-11T12:54:29.035Z,20.28
2022-10-11T12:57:30.646Z,20.34
2022-10-11T13:00:20.529Z,20.40
2022-10-11T13:03:01.927Z,20.32
2022-10-11T13:05:45.248Z,20.25
2022-10-11T13:08:28.654Z,20.03
2022-10-11T13:11:09.371Z,19.98
2022-10-11T13:13:54.529Z,19.90
2022-10-11T13:16:45.577Z,19.83
2022-10-11T13:19:27.943Z,19.74
2022-10-11T13:22:16.357Z,19.59
2022-10-11T13:24:57.747Z,19.22
2022-10-11T13:27:39.644Z,19.14
2022-10-11T13:30:25.390Z,18.81
2022-10-11T13:33:07.199Z,18.57
2022-10-11T13:35:48.292Z,18.38
2022-10-11T13:38:29.112Z,18.24
2022-10-11T13:41:10.085Z,18.11
2022-10-11T13:43:50.937Z,17.89
2022-10-11T13:46:29.428Z,17.74
2022-10-11T13:49:24.339Z,17.58
2022-10-11T13:52:03.337Z,17.39
2022-10-11T13:54:57.718Z,17.24
2022-10-11T13:57:39.235Z,17.04
2022-10-11T14:00:24.897Z,16.92
2022-10-11T14:03:05.469Z,16.78
2022-10-11T14:06:05.666Z,16.66
2022-10-11T14:08:47.559Z,16.48
2022-10-11T14:11:38.237Z,16.38
2022-10-11T14:14:30.143Z,16.23
2022-10-11T14:17:16.308Z,15.98
2022-10-11T14:20:11.130Z,15.80
2022-10-11T14:22:54.414Z,15.74
2022-10-11T14:25:35.206Z,15.67
2022-10-11T14:28:15.079Z,15.64
2022-10-11T14:30:56.491Z,15.57
2022-10-11T14:33:37.917Z,15.51
2022-10-11T14:36:20.252Z,15.45
2022-10-11T14:39:00.745Z,15.40
2022-10-11T14:41:42.284Z,15.30
2022-10-11T14:44:23.644Z,15.25
2022-10-11T14:47:07.263Z,15.16
2022-10-11T14:49:48.331Z,15.06
2022-10-11T14:52:29.337Z,15.01
2022-10-11T14:55:10.761Z,14.92
2022-10-11T14:57:52.318Z,14.87
2022-10-11T15:00:33.689Z,14.83
2022-10-11T15:03:14.990Z,14.74
2022-10-11T15:05:57.317Z,14.62
2022-10-11T15:08:40.823Z,14.59
2022-10-11T15:11:24.265Z,14.46
2022-10-11T15:14:05.512Z,14.34
2022-10-11T15:16:48.847Z,14.29
2022-10-11T15:19:29.770Z,14.26
2022-10-11T15:22:09.595Z,14.18
2022-10-11T15:24:51.881Z,14.11
2022-10-11T15:27:32.473Z,14.01
2022-10-11T15:30:18.811Z,14.00
2022-10-11T15:33:00.102Z,13.97
2022-10-11T15:35:41.815Z,13.88
2022-10-11T15:38:25.839Z,13.80
2022-10-11T15:41:08.361Z,13.75
2022-10-11T15:43:49.667Z,13.68
2022-10-11T15:46:28.314Z,13.66
2022-10-11T15:49:12.188Z,13.57
2022-10-11T15:51:55.065Z,13.54
2022-10-11T15:54:34.146Z,13.43
2022-10-11T15:57:14.417Z,13.44
2022-10-11T16:00:10.056Z,13.29
2022-10-11T16:02:55.526Z,13.29
2022-10-11T16:05:36.710Z,13.24
2022-10-11T16:08:30.572Z,13.17
2022-10-11T16:11:10.839Z,13.13
2022-10-11T16:13:52.113Z,13.01
2022-10-11T16:16:32.041Z,12.95
2022-10-11T16:19:13.443Z,12.85
2022-10-11T16:21:54.703Z,12.72
2022-10-11T16:24:34.626Z,12.62
2022-10-11T16:27:35.136Z,12.54
2022-10-11T16:30:15.755Z,12.44
2022-10-11T16:32:56.521Z,12.34
2022-10-11T16:35:37.878Z,12.20
2022-10-11T16:38:19.325Z,12.10
2022-10-11T16:41:00.647Z,11.99
2022-10-11T16:43:42.053Z,11.88
2022-10-11T16:46:23.440Z,11.77
2022-10-11T16:49:03.413Z,11.65
2022-10-11T16:51:44.879Z,11.54
2022-10-11T16:54:27.060Z,11.40
2022-10-11T16:57:07.481Z,11.29
2022-10-11T16:59:48.889Z,11.18
2022-10-11T17:02:42.178Z,11.05
2022-10-11T17:05:38.756Z,10.94
2022-10-11T17:08:19.856Z,10.83
2022-10-11T17:11:03.480Z,10.73
2022-10-11T17:13:46.396Z,10.61
2022-10-11T17:16:27.377Z,10.52
2022-10-11T17:19:12.009Z,10.40
2022-10-11T17:21:53.259Z,10.32
2022-10-11T17:24:35.257Z,10.19
2022-10-11T17:27:16.021Z,10.09
2022-10-11T17:29:56.221Z,10.02
2022-10-11T17:32:37.295Z,9.93
2022-10-11T17:35:17.355Z,9.84
2022-10-11T17:38:05.111Z,9.76
2022-10-11T17:40:44.478Z,9.65
2022-10-11T17:43:25.377Z,9.59
2022-10-11T17:46:06.465Z,9.48
2022-10-11T17:48:49.349Z,9.42
2022-10-11T17:51:30.330Z,9.34
2022-10-11T17:54:12.513Z,9.27
2022-10-11T17:56:54.432Z,9.18
2022-10-11T17:59:36.679Z,9.12
2022-10-11T18:02:17.495Z,9.08
2022-10-11T18:04:57.392Z,8.98
2022-10-11T18:07:38.806Z,8.93
2022-10-11T18:10:22.204Z,8.86
2022-10-11T18:13:16.927Z,8.80
2022-10-11T18:15:57.959Z,8.72
2022-10-11T18:18:39.918Z,8.66
2022-10-11T18:21:20.788Z,8.62
2022-10-11T18:24:03.011Z,8.57
2022-10-11T18:26:41.653Z,8.47
2022-10-11T18:29:23.865Z,8.43
2022-10-11T18:32:04.845Z,8.35
2022-10-11T18:34:46.233Z,8.32
2022-10-11T18:37:25.992Z,8.27
2022-10-11T18:40:06.286Z,8.19
2022-10-11T18:42:45.273Z,8.16
2022-10-11T18:45:25.407Z,8.11
2022-10-11T18:48:05.469Z,8.06
2022-10-11T18:50:49.515Z,8.01
2022-10-11T18:53:29.717Z,7.96
2022-10-11T18:56:11.867Z,7.92
2022-10-11T18:58:53.145Z,7.87
2022-10-11T19:01:34.588Z,7.80
2022-10-11T19:04:15.786Z,7.77
2022-10-11T19:06:56.680Z,7.72
2022-10-11T19:09:36.665Z,7.70
2022-10-11T19:12:17.907Z,7.65
2022-10-11T19:14:57.708Z,7.59
2022-10-11T19:17:37.860Z,7.54
2022-10-11T19:20:30.707Z,7.49
2022-10-11T19:23:10.538Z,7.45
2022-10-11T19:25:52.031Z,7.39
2022-10-11T19:28:35.525Z,7.34
2022-10-11T19:31:17.137Z,7.30
2022-10-11T19:33:58.605Z,7.25
2022-10-11T19:36:42.555Z,7.19
2022-10-11T19:39:24.552Z,7.17
2022-10-11T19:42:24.455Z,7.12
2022-10-11T19:45:06.656Z,7.08
2022-10-11T19:47:59.050Z,7.03
2022-10-11T19:50:40.518Z,7.01
2022-10-11T19:53:35.839Z,6.95
2022-10-11T19:56:18.010Z,6.94
2022-10-11T19:58:58.084Z,6.89
2022-10-11T20:01:39.648Z,6.85
2022-10-11T20:04:50.994Z,6.80
2022-10-11T20:07:23.438Z,6.78
2022-10-11T20:10:05.082Z,6.74
2022-10-11T20:12:46.066Z,6.68
2022-10-11T20:15:30.472Z,6.66
2022-10-11T20:18:11.834Z,6.64
2022-10-11T20:21:05.791Z,6.61
2022-10-11T20:23:46.953Z,6.59
2022-10-11T20:26:27.869Z,6.55
2022-10-11T20:29:07.739Z,6.52
2022-10-11T20:31:49.025Z,6.51
2022-10-11T20:34:32.448Z,6.47
2022-10-11T20:37:13.396Z,6.47
2022-10-11T20:39:55.949Z,6.43
2022-10-11T20:42:36.233Z,6.40
2022-10-11T20:45:16.129Z,6.38
2022-10-11T20:47:57.482Z,6.37
2022-10-11T20:50:39.223Z,6.29
2022-10-11T20:53:20.577Z,6.28
2022-10-11T20:56:01.691Z,6.23
2022-10-11T20:58:43.477Z,6.19
2022-10-11T21:01:27.162Z,6.18
2022-10-11T21:04:08.095Z,6.15
2022-10-11T21:06:49.082Z,6.06
2022-10-11T21:09:33.384Z,6.02
2022-10-11T21:12:13.372Z,5.97
2022-10-11T21:14:55.128Z,5.95
2022-10-11T21:17:36.167Z,5.91
2022-10-11T21:20:16.037Z,5.93
2022-10-11T21:23:41.673Z,5.92
2022-10-11T21:26:24.605Z,5.90
2022-10-11T21:29:05.650Z,5.88
2022-10-11T21:31:47.011Z,5.88
2022-10-11T21:34:26.848Z,5.85
2022-10-11T21:37:08.140Z,5.79
2022-10-11T21:39:49.998Z,5.83
2022-10-11T21:42:33.007Z,5.79
2022-10-11T21:45:16.021Z,5.75
2022-10-11T21:47:57.139Z,5.76
2022-10-11T21:50:40.386Z,5.73
2022-10-11T21:53:21.402Z,5.72
2022-10-11T21:56:01.561Z,5.69
2022-10-11T21:58:48.784Z,5.64
2022-10-11T22:01:27.188Z,5.62
2022-10-11T22:04:07.163Z,5.61
2022-10-11T22:06:48.472Z,5.57
2022-10-11T22:09:29.710Z,5.56
2022-10-11T22:12:21.460Z,5.54
2022-10-11T22:15:03.231Z,5.54
2022-10-11T22:17:56.066Z,5.41
2022-10-11T22:20:35.864Z,5.40
2022-10-11T22:23:15.740Z,5.36
2022-10-11T22:25:57.430Z,5.35
2022-10-11T22:28:40.718Z,5.33
2022-10-11T22:31:21.584Z,5.29
2022-10-11T22:34:02.916Z,5.28
2022-10-11T22:36:42.723Z,5.25
2022-10-11T22:39:22.591Z,5.27
2022-10-11T22:42:03.957Z,5.23
2022-10-11T22:44:45.318Z,5.21
2022-10-11T22:47:26.649Z,5.19
2022-10-11T22:50:06.973Z,5.19
2022-10-11T22:52:50.083Z,5.13
2022-10-11T22:55:30.976Z,5.08
2022-10-11T22:58:12.808Z,5.06
2022-10-11T23:00:53.748Z,5.04
2022-10-11T23:03:38.807Z,5.04
2022-10-11T23:06:19.765Z,5.03
2022-10-11T23:08:59.527Z,5.02
2022-10-11T23:11:39.405Z,4.97
2022-10-11T23:14:19.232Z,4.95
2022-10-11T23:16:58.986Z,4.95
2022-10-11T23:19:40.831Z,4.93
2022-10-11T23:22:23.825Z,4.92
2022-10-11T23:25:05.025Z,4.94
2022-10-11T23:27:46.241Z,4.92
2022-10-11T23:30:28.018Z,4.92
2022-10-11T23:33:11.009Z,4.83
2022-10-11T23:35:52.097Z,4.80
2022-10-11T23:38:32.040Z,4.81
2022-10-11T23:41:13.272Z,4.79
2022-10-11T23:43:53.104Z,4.79
2022-10-11T23:46:32.944Z,4.79
2022-10-11T23:49:12.712Z,4.80
2022-10-11T23:51:52.491Z,4.77
2022-10-11T23:54:34.354Z,4.77
2022-10-11T23:57:15.288Z,4.78
2022-10-11T23:59:55.123Z,4.74
